Time;durP1;ratioP1;P1;durP2;ratioP2;P2;SDS_P1;SDS_P2;PMS_P1;PMS_P2;Temp;Humidity;BMP_temperature;BMP_pressure;BME280_temperature;BME280_humidity;BME280_pressure;Samples;Min_cycle;Max_cycle;Signal;HPM_P1;HPM_P2
2023/06/06 00:01:17;;;;;;;;;;;18.80;73.50;;;;;;5015054;28;87815;-46
2023/06/06 00:03:45;;;;;;;;;;;18.80;73.50;;;;;;5012398;28;87981;-46
2023/06/06 00:06:14;;;;;;;;;;;18.80;73.50;;;;;;5015546;28;87438;-47
2023/06/06 00:08:42;;;;;;;;;;;18.80;73.50;;;;;;5014748;28;87986;-46
2023/06/06 00:11:09;;;;;;;;;;;18.80;73.50;;;;;;5015740;28;87233;-46
2023/06/06 00:13:35;;;;;;;;;;;18.80;73.60;;;;;;5013509;28;89615;-46
2023/06/06 00:16:01;;;;;;;;;;;18.70;73.50;;;;;;5015280;28;86735;-46
2023/06/06 00:18:27;;;;;;;;;;;18.80;73.60;;;;;;5014186;28;87093;-46
2023/06/06 00:20:53;;;;;;;;;;;18.80;73.50;;;;;;5013274;28;87979;-46
2023/06/06 00:23:20;;;;;;;;;;;18.80;73.50;;;;;;5012770;28;88195;-47
2023/06/06 00:25:46;;;;;;;;;;;18.70;73.40;;;;;;5015653;28;88239;-46
2023/06/06 00:28:13;;;;;;;;;;;18.80;74.10;;;;;;5012952;28;87090;-46
2023/06/06 00:30:38;;;;;;;;;;;18.70;73.50;;;;;;5013801;28;87159;-46
2023/06/06 00:33:04;;;;;;;;;;;18.70;73.50;;;;;;5018540;28;87430;-47
2023/06/06 00:35:29;;;;;;;;;;;18.70;73.50;;;;;;5013054;28;87156;-47
2023/06/06 00:37:55;;;;;;;;;;;18.70;73.50;;;;;;5014448;28;87525;-46
2023/06/06 00:40:20;;;;;;;;;;;18.70;73.50;;;;;;5015083;28;87330;-46
2023/06/06 00:42:46;;;;;;;;;;;18.70;73.50;;;;;;5012286;28;87270;-46
2023/06/06 00:45:11;;;;;;;;;;;18.70;73.60;;;;;;5014662;28;87581;-46
2023/06/06 00:47:37;;;;;;;;;;;18.70;73.40;;;;;;5013641;28;88179;-46
2023/06/06 00:50:03;;;;;;;;;;;18.70;73.50;;;;;;5015297;28;87120;-46
2023/06/06 00:52:30;;;;;;;;;;;18.70;73.50;;;;;;5012763;28;87383;-50
2023/06/06 00:54:56;;;;;;;;;;;18.60;73.40;;;;;;5015796;28;88662;-46
2023/06/06 00:57:23;;;;;;;;;;;18.60;73.40;;;;;;5014929;28;88812;-46
2023/06/06 00:59:49;;;;;;;;;;;18.60;73.40;;;;;;5012171;28;87231;-46
2023/06/06 01:02:17;;;;;;;;;;;18.60;73.40;;;;;;5015439;28;87141;-46
2023/06/06 01:04:46;;;;;;;;;;;18.60;73.40;;;;;;5015526;28;87704;-47
2023/06/06 01:07:17;;;;;;;;;;;18.60;73.30;;;;;;5012812;28;88034;-46
2023/06/06 01:09:44;;;;;;;;;;;18.60;73.30;;;;;;5012911;28;86980;-46
2023/06/06 01:12:09;;;;;;;;;;;18.60;73.30;;;;;;4995990;28;88256;-46
2023/06/06 01:14:39;;;;;;;;;;;18.60;73.40;;;;;;5012253;28;88301;-46
2023/06/06 01:17:07;;;;;;;;;;;18.60;73.40;;;;;;5014919;28;87137;-46
2023/06/06 01:19:33;;;;;;;;;;;18.60;73.50;;;;;;5012759;28;88202;-46
2023/06/06 01:21:59;;;;;;;;;;;18.60;73.40;;;;;;5013527;28;87016;-46
2023/06/06 01:24:27;;;;;;;;;;;18.50;73.30;;;;;;5012173;28;87589;-46
2023/06/06 01:26:52;;;;;;;;;;;18.50;73.40;;;;;;5011793;28;88019;-47
2023/06/06 01:29:18;;;;;;;;;;;18.50;73.40;;;;;;4995640;28;86432;-47
2023/06/06 01:31:49;;;;;;;;;;;18.50;73.30;;;;;;5014358;28;87074;-46
2023/06/06 01:34:35;;;;;;;;;;;18.50;73.40;;;;;;5011215;28;87298;-46
2023/06/06 01:37:20;;;;;;;;;;;18.50;73.30;;;;;;5009924;28;88028;-46
2023/06/06 01:39:47;;;;;;;;;;;18.50;73.40;;;;;;5013926;28;88481;-46
2023/06/06 01:42:14;;;;;;;;;;;18.50;73.40;;;;;;5012728;28;86969;-46
2023/06/06 01:44:40;;;;;;;;;;;18.50;73.50;;;;;;5014268;28;87516;-46
2023/06/06 01:47:06;;;;;;;;;;;18.50;73.40;;;;;;5011524;28;88173;-47
2023/06/06 01:49:32;;;;;;;;;;;18.40;73.30;;;;;;5013647;28;87105;-46
2023/06/06 01:51:58;;;;;;;;;;;18.40;73.40;;;;;;5014282;28;87138;-46
2023/06/06 01:54:23;;;;;;;;;;;18.50;73.40;;;;;;5011598;28;86338;-47
2023/06/06 01:56:49;;;;;;;;;;;18.40;73.40;;;;;;5013246;28;87240;-46
2023/06/06 01:59:14;;;;;;;;;;;18.40;73.30;;;;;;5016293;28;87364;-46
2023/06/06 02:01:40;;;;;;;;;;;18.40;73.30;;;;;;5010845;28;88245;-45
2023/06/06 02:04:05;;;;;;;;;;;18.40;73.40;;;;;;5014385;28;88510;-46
2023/06/06 02:06:32;;;;;;;;;;;18.30;73.40;;;;;;5012069;28;87271;-46
2023/06/06 02:08:58;;;;;;;;;;;18.30;73.30;;;;;;5013778;28;87251;-46
2023/06/06 02:11:23;;;;;;;;;;;18.30;73.30;;;;;;5011646;28;87541;-45
2023/06/06 02:13:50;;;;;;;;;;;18.40;73.30;;;;;;5011991;28;87827;-46
2023/06/06 02:16:17;;;;;;;;;;;18.30;73.30;;;;;;5013973;28;87144;-46
2023/06/06 02:18:44;;;;;;;;;;;18.30;73.30;;;;;;5013571;28;88750;-46
2023/06/06 02:21:11;;;;;;;;;;;18.30;73.30;;;;;;5015042;28;88877;-46
2023/06/06 02:23:36;;;;;;;;;;;18.30;73.30;;;;;;5011025;28;87430;-47
2023/06/06 02:26:03;;;;;;;;;;;18.30;73.30;;;;;;5012774;28;89190;-47
2023/06/06 02:28:30;;;;;;;;;;;18.20;73.50;;;;;;4993924;28;87224;-46
2023/06/06 02:30:56;;;;;;;;;;;18.20;73.30;;;;;;5011367;28;87537;-46
2023/06/06 02:33:21;;;;;;;;;;;18.20;73.40;;;;;;5013549;28;89573;-47
2023/06/06 02:35:47;;;;;;;;;;;18.20;73.20;;;;;;5011902;28;87005;-45
2023/06/06 02:38:13;;;;;;;;;;;18.20;73.40;;;;;;5012557;28;87416;-46
2023/06/06 02:40:38;;;;;;;;;;;18.20;73.30;;;;;;5010468;28;88060;-46
2023/06/06 02:43:04;;;;;;;;;;;18.20;73.40;;;;;;5016315;28;86399;-46
2023/06/06 02:45:30;;;;;;;;;;;18.10;73.40;;;;;;5011923;28;88062;-47
2023/06/06 02:47:55;;;;;;;;;;;18.20;73.30;;;;;;5010760;28;87122;-48
2023/06/06 02:50:21;;;;;;;;;;;18.20;73.40;;;;;;5012255;28;88037;-46
2023/06/06 02:52:47;;;;;;;;;;;18.10;73.30;;;;;;5011962;28;88201;-46
2023/06/06 02:55:13;;;;;;;;;;;18.10;73.20;;;;;;5012943;28;87104;-45
2023/06/06 02:57:38;;;;;;;;;;;18.20;73.20;;;;;;5010003;28;87341;-46
2023/06/06 03:00:07;;;;;;;;;;;18.10;73.20;;;;;;5012629;28;88138;-46
2023/06/06 03:02:33;;;;;;;;;;;18.10;73.30;;;;;;5009919;28;87667;-46
2023/06/06 03:04:58;;;;;;;;;;;18.10;73.40;;;;;;5013610;28;87543;-46
2023/06/06 03:07:24;;;;;;;;;;;18.10;73.30;;;;;;5009744;28;86459;-46
2023/06/06 03:09:49;;;;;;;;;;;18.10;73.30;;;;;;5011825;28;88110;-46
2023/06/06 03:12:15;;;;;;;;;;;18.10;73.30;;;;;;5012587;28;87947;-46
2023/06/06 03:14:40;;;;;;;;;;;18.00;73.20;;;;;;5010810;28;88787;-46
2023/06/06 03:17:07;;;;;;;;;;;18.10;73.30;;;;;;5008735;28;88384;-46
2023/06/06 03:19:33;;;;;;;;;;;18.10;73.20;;;;;;5012103;28;89337;-46
2023/06/06 03:21:59;;;;;;;;;;;18.00;73.20;;;;;;5010509;28;86963;-47
2023/06/06 03:24:25;;;;;;;;;;;18.00;73.20;;;;;;5007144;28;87359;-47
2023/06/06 03:26:51;;;;;;;;;;;18.00;73.30;;;;;;5016961;28;88685;-46
2023/06/06 03:29:16;;;;;;;;;;;18.00;73.20;;;;;;5012985;28;87467;-46
2023/06/06 03:31:44;;;;;;;;;;;18.00;73.20;;;;;;5013300;28;87720;-46
2023/06/06 03:34:09;;;;;;;;;;;17.90;73.10;;;;;;5009325;28;87175;-45
2023/06/06 03:36:35;;;;;;;;;;;18.00;73.20;;;;;;5010026;28;87333;-46
2023/06/06 03:39:01;;;;;;;;;;;18.00;73.00;;;;;;5009241;28;90296;-49
2023/06/06 03:41:27;;;;;;;;;;;18.00;73.00;;;;;;5013287;28;87720;-46
2023/06/06 03:43:52;;;;;;;;;;;18.00;73.10;;;;;;5010430;28;87490;-46
2023/06/06 03:46:18;;;;;;;;;;;18.00;73.00;;;;;;5008543;28;88255;-46
2023/06/06 03:48:43;;;;;;;;;;;18.00;73.00;;;;;;5013830;28;87103;-47
2023/06/06 03:51:09;;;;;;;;;;;17.90;72.90;;;;;;5004833;28;88906;-46
2023/06/06 03:53:35;;;;;;;;;;;17.90;73.50;;;;;;5008111;28;88070;-47
2023/06/06 03:56:01;;;;;;;;;;;17.90;73.00;;;;;;5010679;28;86471;-46
2023/06/06 03:58:29;;;;;;;;;;;17.90;73.00;;;;;;5010772;28;87822;-46
2023/06/06 04:00:58;;;;;;;;;;;17.90;73.00;;;;;;5014344;28;87263;-47
2023/06/06 04:03:23;;;;;;;;;;;17.90;72.90;;;;;;5012066;28;88063;-46
2023/06/06 04:05:50;;;;;;;;;;;17.90;73.00;;;;;;5013804;28;88203;-46
2023/06/06 04:08:16;;;;;;;;;;;17.90;72.90;;;;;;5013756;28;89030;-46
2023/06/06 04:10:42;;;;;;;;;;;17.90;72.90;;;;;;5013686;28;88071;-46
2023/06/06 04:13:07;;;;;;;;;;;17.90;72.90;;;;;;5015911;28;87142;-46
2023/06/06 04:15:34;;;;;;;;;;;17.90;72.90;;;;;;5013139;28;87405;-46
2023/06/06 04:18:00;;;;;;;;;;;17.90;73.00;;;;;;5011914;28;87931;-46
2023/06/06 04:20:26;;;;;;;;;;;17.90;72.90;;;;;;5014968;28;86414;-46
2023/06/06 04:22:51;;;;;;;;;;;17.90;73.00;;;;;;5012397;28;87944;-45
2023/06/06 04:25:18;;;;;;;;;;;17.80;72.90;;;;;;5015143;28;88236;-47
2023/06/06 04:27:44;;;;;;;;;;;17.90;73.00;;;;;;5013451;28;88446;-46
2023/06/06 04:30:12;;;;;;;;;;;17.90;72.90;;;;;;4999857;28;89846;-47
2023/06/06 04:32:39;;;;;;;;;;;17.80;72.90;;;;;;5011879;28;87401;-48
2023/06/06 04:35:09;;;;;;;;;;;17.80;72.90;;;;;;5013773;28;87476;-46
2023/06/06 04:37:36;;;;;;;;;;;17.80;72.90;;;;;;5008450;28;88596;-46
2023/06/06 04:40:04;;;;;;;;;;;17.80;72.90;;;;;;5011420;28;87531;-46
2023/06/06 04:42:32;;;;;;;;;;;17.80;72.90;;;;;;5011419;28;87385;-46
2023/06/06 04:45:03;;;;;;;;;;;17.80;72.90;;;;;;5014343;28;87266;-46
2023/06/06 04:47:30;;;;;;;;;;;17.80;72.90;;;;;;5004687;28;87186;-46
2023/06/06 04:49:56;;;;;;;;;;;17.80;72.90;;;;;;5010936;28;87764;-46
2023/06/06 04:52:23;;;;;;;;;;;17.80;73.00;;;;;;5014138;28;88052;-47
2023/06/06 04:54:51;;;;;;;;;;;17.80;73.00;;;;;;5014293;28;88373;-46
2023/06/06 04:57:17;;;;;;;;;;;17.80;72.90;;;;;;5010270;28;88002;-46
2023/06/06 04:59:52;;;;;;;;;;;17.80;73.00;;;;;;5013600;28;87339;-47
2023/06/06 05:02:20;;;;;;;;;;;17.70;72.90;;;;;;5012579;28;87673;-46
2023/06/06 05:05:09;;;;;;;;;;;17.80;73.00;;;;;;5014591;28;88286;-46
2023/06/06 05:07:35;;;;;;;;;;;17.70;73.10;;;;;;5013525;28;87271;-46
2023/06/06 05:10:00;;;;;;;;;;;17.70;73.00;;;;;;5012156;28;87319;-46
2023/06/06 05:12:26;;;;;;;;;;;17.70;73.10;;;;;;5014109;28;88015;-46
2023/06/06 05:14:51;;;;;;;;;;;17.70;73.10;;;;;;5017394;28;87121;-46
2023/06/06 05:17:17;;;;;;;;;;;17.70;73.10;;;;;;5008445;28;90030;-47
2023/06/06 05:19:45;;;;;;;;;;;17.70;73.10;;;;;;5011847;28;87205;-47
2023/06/06 05:22:10;;;;;;;;;;;17.70;73.10;;;;;;5011865;28;87028;-45
2023/06/06 05:24:36;;;;;;;;;;;17.70;73.00;;;;;;5012886;28;88086;-47
2023/06/06 05:27:01;;;;;;;;;;;17.70;72.90;;;;;;5008847;28;87457;-46
2023/06/06 05:29:27;;;;;;;;;;;17.80;73.00;;;;;;5013643;28;87677;-47
2023/06/06 05:31:52;;;;;;;;;;;17.80;72.90;;;;;;5011632;28;87845;-48
2023/06/06 05:34:18;;;;;;;;;;;17.80;73.00;;;;;;5018168;28;87807;-46
2023/06/06 05:36:44;;;;;;;;;;;17.70;73.00;;;;;;5016605;28;88051;-46
2023/06/06 05:39:10;;;;;;;;;;;17.80;73.00;;;;;;5010715;28;87251;-46
2023/06/06 05:41:36;;;;;;;;;;;17.70;73.10;;;;;;5011944;28;88070;-46
2023/06/06 05:44:01;;;;;;;;;;;17.70;73.10;;;;;;5010867;28;88193;-46
2023/06/06 05:46:27;;;;;;;;;;;17.70;73.10;;;;;;5010868;28;87252;-46
2023/06/06 05:48:53;;;;;;;;;;;17.80;73.20;;;;;;5012309;28;87330;-47
2023/06/06 05:51:18;;;;;;;;;;;17.70;73.20;;;;;;5012619;28;87976;-46
2023/06/06 05:53:44;;;;;;;;;;;17.80;73.20;;;;;;5012806;28;87830;-47
2023/06/06 05:56:10;;;;;;;;;;;17.70;73.20;;;;;;5012323;28;89252;-47
2023/06/06 05:58:36;;;;;;;;;;;17.70;73.20;;;;;;5013363;28;86306;-46
2023/06/06 06:01:01;;;;;;;;;;;17.70;73.10;;;;;;5013870;28;87040;-46
2023/06/06 06:03:28;;;;;;;;;;;17.80;73.20;;;;;;5008196;28;88654;-46
2023/06/06 06:06:04;;;;;;;;;;;17.70;73.30;;;;;;5009060;28;88076;-46
2023/06/06 06:08:31;;;;;;;;;;;17.70;73.30;;;;;;5011204;28;87390;-46
2023/06/06 06:10:56;;;;;;;;;;;17.70;73.30;;;;;;5010961;28;87961;-46
2023/06/06 06:13:22;;;;;;;;;;;17.80;73.20;;;;;;5004600;28;87284;-46
2023/06/06 06:15:47;;;;;;;;;;;17.70;73.20;;;;;;5012056;28;88585;-46
2023/06/06 06:18:14;;;;;;;;;;;17.70;73.30;;;;;;5014162;28;88121;-48
2023/06/06 06:20:40;;;;;;;;;;;17.70;73.30;;;;;;5012960;28;88938;-47
2023/06/06 06:23:06;;;;;;;;;;;17.80;73.30;;;;;;5008487;28;87309;-46
2023/06/06 06:25:31;;;;;;;;;;;17.80;73.30;;;;;;5010405;28;87153;-46
2023/06/06 06:27:57;;;;;;;;;;;17.80;73.40;;;;;;5012851;28;87700;-46
2023/06/06 06:30:22;;;;;;;;;;;17.80;73.30;;;;;;5007218;28;89038;-46
2023/06/06 06:32:48;;;;;;;;;;;17.80;73.50;;;;;;5014472;28;88157;-46
2023/06/06 06:35:14;;;;;;;;;;;17.80;73.40;;;;;;5009950;28;87013;-46
2023/06/06 06:37:40;;;;;;;;;;;17.80;73.30;;;;;;5012228;28;88107;-45
2023/06/06 06:40:12;;;;;;;;;;;17.80;73.20;;;;;;5010810;28;87745;-46
2023/06/06 06:42:42;;;;;;;;;;;17.80;73.90;;;;;;5008800;28;87993;-47
2023/06/06 06:45:09;;;;;;;;;;;17.80;73.60;;;;;;5009480;28;86972;-46
2023/06/06 06:47:37;;;;;;;;;;;17.80;73.40;;;;;;5012781;28;87381;-47
2023/06/06 06:50:06;;;;;;;;;;;17.80;73.50;;;;;;5011804;28;88951;-46
2023/06/06 06:52:33;;;;;;;;;;;17.80;73.60;;;;;;5003465;28;87286;-46
2023/06/06 06:55:05;;;;;;;;;;;17.80;73.50;;;;;;5011780;28;88084;-46
2023/06/06 06:57:33;;;;;;;;;;;17.80;73.50;;;;;;5012241;28;88216;-46
2023/06/06 07:00:00;;;;;;;;;;;17.80;73.50;;;;;;5011103;28;88171;-46
2023/06/06 07:02:27;;;;;;;;;;;17.80;73.40;;;;;;5013966;28;87220;-46
2023/06/06 07:04:59;;;;;;;;;;;17.80;73.60;;;;;;5013155;28;87014;-46
2023/06/06 07:07:25;;;;;;;;;;;17.80;73.60;;;;;;5011940;28;87842;-46
2023/06/06 07:09:51;;;;;;;;;;;17.80;73.80;;;;;;5010406;28;87314;-46
2023/06/06 07:12:16;;;;;;;;;;;17.80;73.70;;;;;;5012035;28;86432;-48
2023/06/06 07:14:42;;;;;;;;;;;17.80;73.50;;;;;;5012350;28;86966;-47
2023/06/06 07:17:08;;;;;;;;;;;17.90;73.60;;;;;;5012087;28;87209;-46
2023/06/06 07:19:36;;;;;;;;;;;17.90;73.40;;;;;;5009745;28;88017;-46
2023/06/06 07:22:05;;;;;;;;;;;17.90;73.50;;;;;;5012426;28;88513;-46
2023/06/06 07:24:31;;;;;;;;;;;17.90;73.60;;;;;;5015144;28;87814;-47
2023/06/06 07:27:18;;;;;;;;;;;17.80;73.60;;;;;;5010932;28;87120;-46
2023/06/06 07:29:44;;;;;;;;;;;17.90;73.70;;;;;;5009833;28;88030;-47
2023/06/06 07:32:09;;;;;;;;;;;17.90;73.60;;;;;;5012002;28;87175;-46
2023/06/06 07:34:35;;;;;;;;;;;17.80;73.50;;;;;;5014545;28;87439;-46
2023/06/06 07:37:00;;;;;;;;;;;17.90;74.20;;;;;;5013761;28;87287;-46
2023/06/06 07:39:26;;;;;;;;;;;17.90;73.60;;;;;;5015384;28;87042;-46
2023/06/06 07:41:52;;;;;;;;;;;17.90;73.60;;;;;;5015237;28;87412;-47
2023/06/06 07:44:18;;;;;;;;;;;17.90;73.40;;;;;;5015461;28;88242;-46
2023/06/06 07:46:44;;;;;;;;;;;17.90;73.50;;;;;;5016534;28;87078;-46
2023/06/06 07:49:10;;;;;;;;;;;17.90;73.70;;;;;;5014722;28;87072;-47
2023/06/06 07:51:35;;;;;;;;;;;17.90;73.70;;;;;;5015886;28;86908;-47
2023/06/06 07:54:01;;;;;;;;;;;17.90;73.60;;;;;;5013246;28;87310;-46
2023/06/06 07:56:30;;;;;;;;;;;17.90;73.60;;;;;;5015016;28;88332;-47
2023/06/06 07:58:55;;;;;;;;;;;17.90;73.60;;;;;;5015197;28;87151;-46
2023/06/06 08:01:21;;;;;;;;;;;17.90;73.60;;;;;;5016522;28;87286;-46
2023/06/06 08:03:50;;;;;;;;;;;17.90;73.60;;;;;;5013698;28;87994;-46
2023/06/06 08:06:19;;;;;;;;;;;17.90;73.80;;;;;;5016047;28;87099;-45
2023/06/06 08:08:45;;;;;;;;;;;17.90;74.20;;;;;;5012129;28;88629;-47
2023/06/06 08:11:12;;;;;;;;;;;17.90;73.90;;;;;;5014722;28;87020;-46
2023/06/06 08:13:37;;;;;;;;;;;17.90;74.10;;;;;;5014589;28;87380;-46
2023/06/06 08:16:03;;;;;;;;;;;18.00;73.90;;;;;;5012453;28;87573;-46
2023/06/06 08:18:29;;;;;;;;;;;18.00;74.00;;;;;;5014863;28;87153;-46
2023/06/06 08:20:54;;;;;;;;;;;18.00;73.60;;;;;;5014958;28;87473;-47
2023/06/06 08:23:20;;;;;;;;;;;18.00;73.80;;;;;;5012521;28;88051;-46
2023/06/06 08:25:45;;;;;;;;;;;18.00;74.30;;;;;;5015909;28;86371;-46
2023/06/06 08:28:11;;;;;;;;;;;18.00;73.70;;;;;;5016554;28;87258;-46
2023/06/06 08:30:36;;;;;;;;;;;18.00;73.70;;;;;;5015447;28;87110;-46
2023/06/06 08:33:02;;;;;;;;;;;18.00;74.20;;;;;;5012147;28;88013;-46
2023/06/06 08:35:28;;;;;;;;;;;18.00;74.50;;;;;;5014150;28;87348;-46
2023/06/06 08:37:53;;;;;;;;;;;18.00;74.40;;;;;;5014907;28;87711;-46
2023/06/06 08:40:19;;;;;;;;;;;18.00;74.30;;;;;;5012716;28;87327;-46
2023/06/06 08:42:48;;;;;;;;;;;18.10;74.10;;;;;;5014495;28;88255;-47
2023/06/06 08:45:16;;;;;;;;;;;18.10;73.90;;;;;;5011085;28;87023;-46
2023/06/06 08:47:43;;;;;;;;;;;18.10;73.90;;;;;;5015097;28;87630;-47
2023/06/06 08:50:09;;;;;;;;;;;18.10;73.80;;;;;;5016535;28;87386;-46
2023/06/06 08:52:35;;;;;;;;;;;18.10;73.70;;;;;;5012907;28;87035;-46
2023/06/06 08:55:01;;;;;;;;;;;18.10;74.30;;;;;;5014897;28;87861;-46
2023/06/06 08:57:27;;;;;;;;;;;18.10;74.50;;;;;;5012565;28;88050;-47
2023/06/06 08:59:53;;;;;;;;;;;18.10;74.30;;;;;;5014207;28;88298;-46
2023/06/06 09:02:18;;;;;;;;;;;18.10;74.40;;;;;;5014826;28;87922;-46
2023/06/06 09:04:44;;;;;;;;;;;18.10;74.50;;;;;;5012839;28;87077;-46
2023/06/06 09:07:12;;;;;;;;;;;18.10;74.30;;;;;;5013438;28;87434;-47
2023/06/06 09:09:40;;;;;;;;;;;18.10;74.40;;;;;;5014508;28;88187;-47
2023/06/06 09:12:09;;;;;;;;;;;18.10;74.30;;;;;;5015544;28;87084;-46
2023/06/06 09:14:34;;;;;;;;;;;18.20;74.30;;;;;;5014963;28;87450;-45
2023/06/06 09:17:00;;;;;;;;;;;18.20;74.60;;;;;;5012109;28;87092;-46
2023/06/06 09:19:26;;;;;;;;;;;18.20;74.50;;;;;;5014513;28;87519;-46
2023/06/06 09:21:52;;;;;;;;;;;18.20;74.60;;;;;;5012587;28;88987;-46
2023/06/06 09:24:18;;;;;;;;;;;18.20;74.60;;;;;;5011994;28;87069;-45
2023/06/06 09:26:43;;;;;;;;;;;18.20;75.00;;;;;;5014761;28;87574;-45
2023/06/06 09:29:11;;;;;;;;;;;18.20;75.50;;;;;;5013863;28;88190;-47
2023/06/06 09:31:38;;;;;;;;;;;18.20;75.00;;;;;;5014333;28;87121;-47
2023/06/06 09:34:04;;;;;;;;;;;18.20;75.00;;;;;;5014344;28;87469;-46
2023/06/06 09:36:29;;;;;;;;;;;18.30;75.00;;;;;;5013433;28;87206;-46
2023/06/06 09:39:01;;;;;;;;;;;18.30;74.70;;;;;;5014683;28;86738;-47
2023/06/06 09:41:27;;;;;;;;;;;18.30;74.90;;;;;;5011777;28;87113;-46
2023/06/06 09:43:53;;;;;;;;;;;18.30;74.90;;;;;;5014111;28;87157;-46
2023/06/06 09:46:18;;;;;;;;;;;18.40;74.90;;;;;;5011277;28;87957;-46
2023/06/06 09:48:56;;;;;;;;;;;18.30;75.10;;;;;;5014028;28;88110;-47
2023/06/06 09:51:22;;;;;;;;;;;18.40;75.10;;;;;;5014223;28;87056;-46
2023/06/06 09:53:51;;;;;;;;;;;18.40;75.20;;;;;;5011654;28;87480;-47
2023/06/06 09:56:18;;;;;;;;;;;18.40;75.20;;;;;;5014629;28;87985;-47
2023/06/06 09:58:44;;;;;;;;;;;18.40;75.20;;;;;;5014175;28;87466;-46
2023/06/06 10:01:09;;;;;;;;;;;18.40;75.30;;;;;;5011837;28;88284;-47
2023/06/06 10:03:37;;;;;;;;;;;18.40;75.20;;;;;;5012696;28;86385;-46
2023/06/06 10:06:05;;;;;;;;;;;18.50;75.30;;;;;;5011242;28;87105;-46
2023/06/06 10:08:31;;;;;;;;;;;18.50;75.40;;;;;;5011347;28;88086;-46
2023/06/06 10:10:57;;;;;;;;;;;18.50;75.30;;;;;;5011890;28;88646;-46
2023/06/06 10:13:22;;;;;;;;;;;18.50;75.20;;;;;;5013288;28;88447;-46
2023/06/06 10:15:51;;;;;;;;;;;18.50;75.10;;;;;;5012477;28;87301;-46
2023/06/06 10:18:16;;;;;;;;;;;18.50;75.10;;;;;;5012244;28;87513;-47
2023/06/06 10:20:45;;;;;;;;;;;18.50;75.10;;;;;;5011033;28;88375;-46
2023/06/06 10:23:11;;;;;;;;;;;18.60;75.10;;;;;;5011432;28;87068;-46
2023/06/06 10:25:37;;;;;;;;;;;18.60;75.00;;;;;;5012411;28;87549;-45
2023/06/06 10:28:08;;;;;;;;;;;18.60;75.00;;;;;;5013740;28;87317;-46
2023/06/06 10:30:37;;;;;;;;;;;18.60;75.00;;;;;;5012227;28;87047;-47
2023/06/06 10:33:09;;;;;;;;;;;18.60;75.00;;;;;;5011443;28;87935;-47
2023/06/06 10:35:37;;;;;;;;;;;18.60;75.00;;;;;;5010167;28;88973;-46
2023/06/06 10:38:09;;;;;;;;;;;18.60;75.00;;;;;;5014851;28;86937;-47
2023/06/06 10:40:51;;;;;;;;;;;18.70;74.90;;;;;;5010474;28;87890;-46
2023/06/06 10:43:42;;;;;;;;;;;18.70;74.90;;;;;;5010598;28;87197;-46
2023/06/06 10:46:08;;;;;;;;;;;18.70;74.90;;;;;;5012802;28;87462;-47
2023/06/06 10:48:39;;;;;;;;;;;18.70;74.90;;;;;;5011847;28;87999;-47
2023/06/06 10:51:06;;;;;;;;;;;18.70;74.80;;;;;;5010468;28;87240;-45
2023/06/06 10:53:31;;;;;;;;;;;18.70;74.80;;;;;;5013095;28;87473;-46
2023/06/06 10:55:57;;;;;;;;;;;18.70;75.00;;;;;;5011803;28;88003;-47
2023/06/06 10:58:29;;;;;;;;;;;18.70;74.90;;;;;;5010588;28;87118;-47
2023/06/06 11:01:02;;;;;;;;;;;18.70;74.80;;;;;;5014946;28;88018;-46
2023/06/06 11:03:37;;;;;;;;;;;18.80;74.80;;;;;;5010639;28;87160;-47
2023/06/06 11:06:04;;;;;;;;;;;18.80;74.70;;;;;;5011448;28;87378;-46
2023/06/06 11:08:33;;;;;;;;;;;18.80;74.70;;;;;;5014633;28;87957;-46
2023/06/06 11:11:21;;;;;;;;;;;18.80;74.70;;;;;;5014902;28;86998;-47
2023/06/06 11:13:51;;;;;;;;;;;18.80;74.70;;;;;;5014379;28;87461;-46
2023/06/06 11:16:26;;;;;;;;;;;18.80;74.60;;;;;;5015055;28;88272;-45
2023/06/06 11:19:00;;;;;;;;;;;18.80;74.50;;;;;;5015370;28;86313;-46
2023/06/06 11:21:25;;;;;;;;;;;18.80;74.50;;;;;;5014025;28;88176;-46
2023/06/06 11:23:52;;;;;;;;;;;18.80;74.60;;;;;;5017957;28;88240;-46
2023/06/06 11:26:18;;;;;;;;;;;18.90;74.40;;;;;;5015600;28;88404;-47
2023/06/06 11:28:44;;;;;;;;;;;18.90;74.30;;;;;;5013426;28;88281;-46
2023/06/06 11:31:10;;;;;;;;;;;18.90;74.20;;;;;;5014938;28;87515;-47
2023/06/06 11:33:36;;;;;;;;;;;18.90;74.20;;;;;;5014326;28;87369;-47
2023/06/06 11:36:01;;;;;;;;;;;18.90;74.10;;;;;;5015963;28;88001;-46
2023/06/06 11:38:27;;;;;;;;;;;19.00;74.20;;;;;;5013965;28;87093;-46
2023/06/06 11:40:54;;;;;;;;;;;19.00;74.20;;;;;;5014718;28;87343;-46
2023/06/06 11:43:19;;;;;;;;;;;19.00;74.20;;;;;;5016284;28;87410;-46
2023/06/06 11:45:45;;;;;;;;;;;19.00;74.10;;;;;;5016807;28;87168;-46
2023/06/06 11:48:23;;;;;;;;;;;19.00;74.00;;;;;;4994633;28;88830;-46
2023/06/06 11:50:49;;;;;;;;;;;19.10;74.10;;;;;;5012966;28;88038;-46
2023/06/06 11:53:30;;;;;;;;;;;19.10;74.00;;;;;;4996318;28;91623;-46
2023/06/06 11:55:56;;;;;;;;;;;19.10;73.80;;;;;;5013352;28;87959;-47
2023/06/06 11:58:22;;;;;;;;;;;19.10;73.80;;;;;;5013472;28;87097;-46
2023/06/06 12:00:49;;;;;;;;;;;19.10;73.90;;;;;;5016601;28;87614;-46
2023/06/06 12:03:14;;;;;;;;;;;19.10;73.80;;;;;;5013493;28;88102;-46
2023/06/06 12:05:41;;;;;;;;;;;19.20;73.90;;;;;;5014002;28;87302;-46
2023/06/06 12:08:07;;;;;;;;;;;19.20;73.80;;;;;;5018806;28;87424;-47
2023/06/06 12:10:32;;;;;;;;;;;19.20;73.80;;;;;;5013371;28;87072;-46
2023/06/06 12:12:58;;;;;;;;;;;19.20;73.70;;;;;;5014261;28;87351;-47
2023/06/06 12:15:28;;;;;;;;;;;19.30;73.70;;;;;;5014053;28;90302;-47
2023/06/06 12:18:00;;;;;;;;;;;19.30;73.70;;;;;;5013299;28;87135;-46
2023/06/06 12:20:26;;;;;;;;;;;19.30;74.20;;;;;;5015144;28;87346;-46
2023/06/06 12:22:53;;;;;;;;;;;19.30;73.60;;;;;;5012293;28;87915;-46
2023/06/06 12:25:28;;;;;;;;;;;19.30;73.60;;;;;;5013757;28;87678;-46
2023/06/06 12:27:54;;;;;;;;;;;19.30;73.50;;;;;;4999088;28;90680;-46
2023/06/06 12:30:30;;;;;;;;;;;19.40;73.50;;;;;;5012693;28;87199;-46
2023/06/06 12:32:57;;;;;;;;;;;19.40;73.60;;;;;;5012456;28;86649;-47
2023/06/06 12:35:23;;;;;;;;;;;19.40;73.40;;;;;;5014328;28;88017;-47
2023/06/06 12:37:48;;;;;;;;;;;19.40;73.50;;;;;;5013987;28;87010;-47
2023/06/06 12:40:18;;;;;;;;;;;19.40;73.30;;;;;;5010965;28;87989;-46
2023/06/06 12:42:51;;;;;;;;;;;19.50;73.30;;;;;;5013040;28;88068;-46
2023/06/06 12:45:17;;;;;;;;;;;19.50;73.40;;;;;;5015145;28;87244;-47
2023/06/06 12:47:42;;;;;;;;;;;19.50;73.20;;;;;;5013668;28;87378;-46
2023/06/06 12:50:08;;;;;;;;;;;19.50;73.20;;;;;;5015497;28;87379;-46
2023/06/06 12:52:34;;;;;;;;;;;19.50;73.30;;;;;;5012406;28;87026;-47
2023/06/06 12:54:59;;;;;;;;;;;19.60;73.10;;;;;;5014707;28;88254;-47
2023/06/06 12:57:25;;;;;;;;;;;19.60;73.00;;;;;;5013299;28;86401;-47
2023/06/06 12:59:50;;;;;;;;;;;19.60;72.90;;;;;;5012442;28;87099;-46
2023/06/06 13:02:16;;;;;;;;;;;19.60;72.90;;;;;;5012830;28;87165;-47
2023/06/06 13:04:42;;;;;;;;;;;19.70;72.80;;;;;;5013401;28;88040;-46
2023/06/06 13:07:08;;;;;;;;;;;19.70;72.90;;;;;;5013896;28;88463;-46
2023/06/06 13:09:34;;;;;;;;;;;19.80;72.90;;;;;;5011717;28;88026;-46
2023/06/06 13:11:59;;;;;;;;;;;19.80;72.70;;;;;;5017459;28;87108;-46
2023/06/06 13:14:27;;;;;;;;;;;19.80;72.70;;;;;;5012728;28;88543;-46
2023/06/06 13:16:52;;;;;;;;;;;19.80;72.70;;;;;;5013694;28;87422;-47
2023/06/06 13:19:19;;;;;;;;;;;19.90;72.90;;;;;;5014526;28;87846;-46
2023/06/06 13:21:46;;;;;;;;;;;19.90;72.70;;;;;;5013109;28;87729;-46
2023/06/06 13:24:13;;;;;;;;;;;19.90;72.80;;;;;;5012188;28;87077;-46
2023/06/06 13:26:40;;;;;;;;;;;19.90;72.60;;;;;;5014516;28;87139;-47
2023/06/06 13:29:06;;;;;;;;;;;19.90;72.50;;;;;;5012130;28;88950;-46
2023/06/06 13:31:31;;;;;;;;;;;20.00;72.50;;;;;;5011356;28;87288;-46
2023/06/06 13:33:57;;;;;;;;;;;20.00;72.60;;;;;;5017251;28;87605;-47
2023/06/06 13:36:22;;;;;;;;;;;20.00;72.60;;;;;;5013292;28;87712;-47
2023/06/06 13:38:48;;;;;;;;;;;20.00;72.50;;;;;;5013313;28;87453;-46
2023/06/06 13:41:13;;;;;;;;;;;20.00;72.40;;;;;;5011362;28;87148;-47
2023/06/06 13:43:39;;;;;;;;;;;20.00;72.30;;;;;;5014327;28;87078;-47
2023/06/06 13:46:04;;;;;;;;;;;20.10;72.40;;;;;;5013232;28;87440;-46
2023/06/06 13:48:30;;;;;;;;;;;20.00;72.40;;;;;;5014396;28;87202;-46
2023/06/06 13:50:57;;;;;;;;;;;20.10;72.40;;;;;;5011576;28;87141;-47
2023/06/06 13:53:23;;;;;;;;;;;20.10;72.40;;;;;;5012530;28;87932;-46
2023/06/06 13:55:49;;;;;;;;;;;20.10;72.20;;;;;;5016175;28;88147;-47
2023/06/06 13:58:21;;;;;;;;;;;20.20;72.30;;;;;;5011583;28;87697;-46
2023/06/06 14:00:47;;;;;;;;;;;20.20;72.40;;;;;;5012699;28;88262;-46
2023/06/06 14:03:12;;;;;;;;;;;20.20;72.20;;;;;;5012826;28;87238;-47
2023/06/06 14:05:38;;;;;;;;;;;20.20;72.20;;;;;;5011032;28;87554;-46
2023/06/06 14:08:04;;;;;;;;;;;20.20;72.30;;;;;;5012834;28;87294;-46
2023/06/06 14:10:29;;;;;;;;;;;20.20;72.30;;;;;;5014190;28;86465;-46
2023/06/06 14:12:57;;;;;;;;;;;20.20;72.50;;;;;;5010862;28;87052;-47
2023/06/06 14:15:22;;;;;;;;;;;20.20;72.50;;;;;;5012758;28;88198;-47